createdAt,value
2018-07-07T00:00:23.413Z,49.48
2018-07-07T00:02:52.403Z,45.88
2018-07-07T00:05:20.330Z,40.48
2018-07-07T00:07:48.426Z,46.42
2018-07-07T00:10:16.418Z,45.73
2018-07-07T00:12:44.644Z,45.75
2018-07-07T00:15:16.658Z,52.35
2018-07-07T00:17:45.348Z,45.23
2018-07-07T00:20:13.524Z,52.20
2018-07-07T00:25:39.915Z,45.23
2018-07-07T00:28:07.876Z,46.18
2018-07-07T00:30:35.748Z,39.83
2018-07-07T00:33:03.578Z,44.83
2018-07-07T00:35:31.443Z,45.33
2018-07-07T00:38:01.281Z,48.30
2018-07-07T00:40:29.183Z,54.60
2018-07-07T00:42:57.997Z,56.42
2018-07-07T00:45:25.752Z,58.20
2018-07-07T00:47:53.546Z,46.55
2018-07-07T00:50:21.320Z,47.50
2018-07-07T00:52:49.167Z,43.08
2018-07-07T00:55:17.103Z,39.65
2018-07-07T00:57:44.927Z,37.63
2018-07-07T01:00:12.732Z,33.40
2018-07-07T01:02:40.510Z,42.70
2018-07-07T01:05:18.327Z,50.90
2018-07-07T01:07:46.088Z,53.52
2018-07-07T01:10:14.888Z,64.17
2018-07-07T01:12:51.826Z,53.08
2018-07-07T01:15:19.760Z,49.93
2018-07-07T01:17:47.741Z,45.95
2018-07-07T01:20:15.663Z,51.20
2018-07-07T01:22:43.670Z,67.58
2018-07-07T01:25:11.558Z,56.70
2018-07-07T01:27:39.487Z,37.25
2018-07-07T01:30:07.364Z,36.45
2018-07-07T01:32:35.347Z,51.42
2018-07-07T01:35:03.238Z,57.73
2018-07-07T01:37:33.260Z,48.65
2018-07-07T01:40:01.129Z,53.90
2018-07-07T01:42:29.073Z,87.00
2018-07-07T01:44:57.016Z,73.97
2018-07-07T01:47:26.049Z,81.12
2018-07-07T01:49:53.976Z,96.47
2018-07-07T01:52:21.947Z,98.60
2018-07-07T01:54:49.909Z,105.55
2018-07-07T01:57:17.896Z,113.03
2018-07-07T01:59:45.855Z,106.65
2018-07-07T02:02:13.838Z,114.88
2018-07-07T02:04:41.770Z,111.30
2018-07-07T02:07:09.784Z,110.68
2018-07-07T02:09:37.662Z,109.70
2018-07-07T02:14:39.021Z,99.87
2018-07-07T02:17:06.829Z,109.25
2018-07-07T02:19:34.610Z,114.62
2018-07-07T02:22:02.443Z,102.02
2018-07-07T02:24:30.262Z,128.42
2018-07-07T02:30:36.609Z,108.97
2018-07-07T02:33:04.447Z,97.88
2018-07-07T02:35:32.246Z,95.30
2018-07-07T02:38:00.049Z,104.83
2018-07-07T02:40:27.969Z,94.80
2018-07-07T02:42:55.808Z,104.03
2018-07-07T02:45:23.591Z,115.12
2018-07-07T02:47:51.395Z,117.13
2018-07-07T02:50:19.169Z,132.95
2018-07-07T02:52:46.922Z,127.22
2018-07-07T02:55:14.764Z,113.15
2018-07-07T02:57:42.686Z,107.65
2018-07-07T03:00:10.473Z,111.08
2018-07-07T03:02:38.245Z,134.43
2018-07-07T03:05:06.006Z,140.75
2018-07-07T03:07:33.811Z,142.90
2018-07-07T03:10:01.871Z,167.37
2018-07-07T03:12:29.717Z,160.48
2018-07-07T03:14:57.524Z,168.85
2018-07-07T03:17:25.336Z,186.43
2018-07-07T03:19:53.140Z,198.55
2018-07-07T03:22:20.931Z,164.10
2018-07-07T03:24:48.757Z,131.43
2018-07-07T03:27:16.523Z,125.65
2018-07-07T03:29:44.251Z,132.45
2018-07-07T03:32:12.005Z,138.77
2018-07-07T03:34:39.815Z,155.03
2018-07-07T03:37:07.617Z,159.40
2018-07-07T03:39:35.406Z,156.18
2018-07-07T03:42:03.174Z,141.77
2018-07-07T03:44:30.944Z,146.32
2018-07-07T03:46:58.758Z,157.32
2018-07-07T03:49:26.547Z,158.37
2018-07-07T03:51:54.296Z,176.97
2018-07-07T03:54:22.098Z,212.42
2018-07-07T03:56:49.920Z,181.70
2018-07-07T03:59:18.711Z,152.93
2018-07-07T04:01:46.505Z,196.25
2018-07-07T04:04:14.306Z,121.07
2018-07-07T04:06:42.072Z,94.97
2018-07-07T04:09:26.598Z,94.60
2018-07-07T04:11:54.382Z,85.15
2018-07-07T04:14:22.144Z,83.60
2018-07-07T04:16:49.912Z,76.87
2018-07-07T04:19:17.704Z,69.77
2018-07-07T04:21:45.486Z,63.30
2018-07-07T04:24:13.277Z,66.30
2018-07-07T04:26:41.054Z,62.70
2018-07-07T04:29:08.814Z,54.35
2018-07-07T04:31:36.641Z,48.65
2018-07-07T04:34:04.425Z,47.62
2018-07-07T04:36:32.221Z,56.73
2018-07-07T04:38:59.977Z,40.98
2018-07-07T04:41:28.750Z,44.00
2018-07-07T04:43:56.558Z,42.80
2018-07-07T04:46:25.373Z,51.35
2018-07-07T04:48:53.283Z,47.78
2018-07-07T04:51:21.241Z,41.35
2018-07-07T04:53:49.156Z,35.08
2018-07-07T04:56:17.146Z,31.70
2018-07-07T04:58:45.047Z,44.13
2018-07-07T05:01:13.021Z,25.17
2018-07-07T05:03:40.941Z,26.62
2018-07-07T05:06:08.864Z,24.25
2018-07-07T05:08:36.739Z,25.05
2018-07-07T05:11:04.760Z,25.90
2018-07-07T05:13:32.678Z,23.92
2018-07-07T05:16:00.797Z,25.27
2018-07-07T05:18:29.850Z,48.70
2018-07-07T05:20:57.970Z,45.55
2018-07-07T05:23:25.895Z,55.38
2018-07-07T05:25:53.901Z,26.45
2018-07-07T05:28:21.788Z,23.60
2018-07-07T05:30:49.840Z,16.80
2018-07-07T05:33:17.818Z,18.32
2018-07-07T05:35:47.069Z,21.20
2018-07-07T05:38:16.021Z,18.95
2018-07-07T05:40:44.090Z,11.15
2018-07-07T05:43:12.242Z,14.45
2018-07-07T05:45:40.275Z,17.48
2018-07-07T05:48:08.209Z,40.20
2018-07-07T05:50:36.046Z,13.38
2018-07-07T05:53:04.024Z,7.12
2018-07-07T05:55:31.792Z,6.75
2018-07-07T05:57:59.603Z,5.90
2018-07-07T06:00:27.440Z,9.73
2018-07-07T06:02:55.307Z,7.72
2018-07-07T06:05:23.107Z,22.22
2018-07-07T06:07:50.970Z,23.95
2018-07-07T06:10:18.767Z,13.62
2018-07-07T06:12:46.601Z,7.10
2018-07-07T06:15:14.506Z,7.70
2018-07-07T06:17:44.535Z,7.20
2018-07-07T06:20:12.404Z,6.35
2018-07-07T06:22:40.366Z,6.67
2018-07-07T06:25:08.061Z,12.15
2018-07-07T06:27:35.896Z,7.80
2018-07-07T06:30:03.973Z,4.25
2018-07-07T06:32:31.773Z,5.10
2018-07-07T06:35:39.397Z,5.17
2018-07-07T06:38:07.503Z,7.08
2018-07-07T06:40:35.368Z,8.95
2018-07-07T06:43:03.281Z,6.42
2018-07-07T06:45:31.229Z,9.48
2018-07-07T06:47:59.253Z,7.35
2018-07-07T06:50:27.202Z,38.42
2018-07-07T06:52:55.130Z,9.78
2018-07-07T06:55:23.131Z,12.93
2018-07-07T06:57:51.165Z,16.67
2018-07-07T07:00:19.283Z,10.28
2018-07-07T07:02:47.254Z,8.43
2018-07-07T07:05:15.366Z,11.90
2018-07-07T07:07:43.283Z,10.60
2018-07-07T07:10:11.327Z,11.57
2018-07-07T07:12:39.266Z,6.87
2018-07-07T07:15:08.332Z,10.45
2018-07-07T07:17:36.324Z,7.67
2018-07-07T07:20:04.469Z,12.53
2018-07-07T07:22:32.375Z,11.95
2018-07-07T07:25:00.403Z,12.00
2018-07-07T07:27:28.356Z,9.70
2018-07-07T07:29:56.307Z,16.93
2018-07-07T07:32:24.246Z,10.13
2018-07-07T07:34:52.231Z,9.03
2018-07-07T07:39:53.760Z,9.15
2018-07-07T07:42:21.614Z,6.97
2018-07-07T07:44:49.482Z,8.55
2018-07-07T07:47:17.311Z,6.45
2018-07-07T07:49:45.108Z,12.75
2018-07-07T07:54:46.632Z,10.65
2018-07-07T07:57:14.443Z,6.08
2018-07-07T07:59:42.387Z,9.78
2018-07-07T08:02:10.197Z,14.35
2018-07-07T08:04:38.023Z,9.23
2018-07-07T08:07:05.885Z,7.47
2018-07-07T08:09:33.676Z,8.98
2018-07-07T08:12:01.455Z,6.80
2018-07-07T08:14:29.232Z,12.40
2018-07-07T08:16:57.048Z,9.03
2018-07-07T08:19:24.918Z,7.33
2018-07-07T08:21:52.754Z,16.07
2018-07-07T08:24:22.513Z,13.62
2018-07-07T08:26:50.347Z,13.55
2018-07-07T08:29:18.263Z,8.90
2018-07-07T08:31:46.113Z,12.53
2018-07-07T08:34:14.107Z,7.58
2018-07-07T08:36:41.875Z,6.10
2018-07-07T08:39:09.686Z,6.33
2018-07-07T08:41:37.428Z,9.33
2018-07-07T08:44:12.351Z,9.55
2018-07-07T08:46:41.481Z,8.00
2018-07-07T08:49:09.487Z,6.58
2018-07-07T08:51:37.412Z,6.03
2018-07-07T08:54:05.422Z,9.70
2018-07-07T08:56:33.383Z,9.63
2018-07-07T08:59:01.415Z,7.90
2018-07-07T09:01:29.338Z,7.17
2018-07-07T09:03:57.377Z,7.78
2018-07-07T09:06:26.974Z,8.90
2018-07-07T09:08:55.000Z,8.15
2018-07-07T09:11:22.913Z,7.67
2018-07-07T09:13:50.857Z,7.55
2018-07-07T09:16:18.810Z,10.85
2018-07-07T09:18:46.957Z,14.68
2018-07-07T09:21:14.888Z,13.85
2018-07-07T09:23:43.049Z,12.68
2018-07-07T09:26:11.049Z,13.80
2018-07-07T09:28:39.121Z,19.02
2018-07-07T09:31:07.596Z,17.92
2018-07-07T09:33:35.592Z,18.98
2018-07-07T09:36:03.599Z,19.02
2018-07-07T09:38:31.728Z,18.30
2018-07-07T09:40:59.620Z,18.90
2018-07-07T09:43:27.607Z,17.60
2018-07-07T09:48:28.692Z,18.73
2018-07-07T09:50:56.655Z,11.40
2018-07-07T09:53:24.406Z,13.75
2018-07-07T09:55:52.378Z,13.30
2018-07-07T09:58:20.140Z,15.95
2018-07-07T10:00:48.123Z,10.23
2018-07-07T10:03:15.945Z,12.95
2018-07-07T10:05:43.947Z,15.20
2018-07-07T10:08:11.781Z,12.73
2018-07-07T10:10:39.724Z,8.78
2018-07-07T10:13:07.559Z,14.65
2018-07-07T10:15:48.433Z,13.45
2018-07-07T10:18:16.233Z,12.88
2018-07-07T10:20:44.076Z,124.50
2018-07-07T10:23:11.824Z,11.33
2018-07-07T10:25:39.542Z,14.43
2018-07-07T10:28:07.382Z,39.05
2018-07-07T10:30:35.173Z,29.77
2018-07-07T10:33:03.367Z,21.65
2018-07-07T10:35:31.164Z,10.30
2018-07-07T10:37:59.022Z,26.00
2018-07-07T10:40:27.853Z,11.10
2018-07-07T10:42:55.604Z,7.10
2018-07-07T10:45:23.444Z,12.75
2018-07-07T10:47:51.279Z,8.50
2018-07-07T10:50:19.041Z,8.38
2018-07-07T10:52:46.787Z,10.13
2018-07-07T10:55:14.612Z,13.58
2018-07-07T10:57:42.390Z,10.03
2018-07-07T11:00:10.245Z,8.20
2018-07-07T11:02:38.106Z,8.95
2018-07-07T11:05:06.080Z,7.85
2018-07-07T11:07:33.857Z,12.80
2018-07-07T11:10:01.676Z,12.47
2018-07-07T11:12:29.459Z,14.83
2018-07-07T11:14:57.263Z,12.05
2018-07-07T11:17:25.138Z,9.95
2018-07-07T11:22:47.491Z,11.20
2018-07-07T11:25:15.264Z,11.35
2018-07-07T11:27:43.085Z,11.73
2018-07-07T11:30:10.879Z,5.50
2018-07-07T11:32:38.615Z,8.85
2018-07-07T11:35:06.410Z,12.88
2018-07-07T11:37:34.228Z,13.43
2018-07-07T11:40:02.054Z,11.00
2018-07-07T11:42:29.926Z,8.90
2018-07-07T11:44:57.837Z,12.10
2018-07-07T11:47:25.666Z,10.13
2018-07-07T11:49:53.537Z,7.55
2018-07-07T11:52:21.420Z,7.40
2018-07-07T11:54:49.974Z,23.32
2018-07-07T11:57:18.916Z,9.68
2018-07-07T11:59:46.732Z,6.47
2018-07-07T12:02:16.612Z,8.43
2018-07-07T12:04:44.536Z,7.10
2018-07-07T12:07:12.337Z,9.93
2018-07-07T12:09:40.144Z,5.78
2018-07-07T12:12:07.996Z,394.00
2018-07-07T12:14:35.901Z,6.08
2018-07-07T12:17:03.942Z,10.35
2018-07-07T12:19:31.765Z,2.33
2018-07-07T12:21:59.639Z,4.00
2018-07-07T12:27:59.994Z,3.60
2018-07-07T12:30:27.865Z,10.35
2018-07-07T12:32:57.511Z,4.95
2018-07-07T12:35:25.338Z,4.58
2018-07-07T12:37:53.138Z,1.00
2018-07-07T12:40:21.118Z,0.72
2018-07-07T12:42:49.079Z,2.77
2018-07-07T12:45:17.091Z,2.72
2018-07-07T12:47:44.973Z,5.62
2018-07-07T12:50:13.084Z,4.08
2018-07-07T12:52:41.033Z,4.53
2018-07-07T12:55:09.035Z,3.90
2018-07-07T12:57:37.225Z,2.83
2018-07-07T13:00:05.365Z,1.47
2018-07-07T13:02:33.282Z,3.65
2018-07-07T13:05:01.266Z,15.15
2018-07-07T13:07:29.220Z,5.05
2018-07-07T13:09:57.256Z,3.22
2018-07-07T13:12:25.164Z,2.47
2018-07-07T13:14:53.172Z,3.47
2018-07-07T13:17:21.103Z,1.82
2018-07-07T13:19:49.094Z,1.35
2018-07-07T13:22:17.186Z,2.05
2018-07-07T13:24:45.276Z,0.68
2018-07-07T13:27:13.226Z,1.65
2018-07-07T13:29:41.224Z,1.47
2018-07-07T13:32:09.628Z,0.82
2018-07-07T13:34:38.296Z,1.22
2018-07-07T13:37:06.400Z,2.22
2018-07-07T13:39:37.713Z,2.27
2018-07-07T13:42:06.691Z,0.95
2018-07-07T13:44:47.721Z,4.92
2018-07-07T13:47:15.508Z,0.47
2018-07-07T13:49:43.245Z,0.90
2018-07-07T13:52:10.996Z,2.37
2018-07-07T13:54:38.754Z,3.40
2018-07-07T13:57:06.567Z,3.50
2018-07-07T13:59:34.321Z,1.25
2018-07-07T14:02:02.156Z,4.53
2018-07-07T14:04:29.914Z,3.37
2018-07-07T14:07:05.481Z,2.62
2018-07-07T14:09:33.411Z,2.50
2018-07-07T14:12:02.170Z,1.37
2018-07-07T14:14:30.858Z,5.37
2018-07-07T14:16:58.730Z,1.55
2018-07-07T14:19:26.495Z,1.52
2018-07-07T14:21:54.356Z,2.85
2018-07-07T14:24:22.183Z,5.40
2018-07-07T14:26:51.108Z,2.37
2018-07-07T14:29:18.902Z,2.80
2018-07-07T14:31:46.806Z,3.02
2018-07-07T14:34:14.709Z,1.35
2018-07-07T14:36:42.696Z,1.47
2018-07-07T14:39:10.594Z,4.30
2018-07-07T14:41:38.512Z,2.35
2018-07-07T14:44:06.491Z,3.58
2018-07-07T14:46:35.000Z,3.80
2018-07-07T14:49:03.032Z,3.52
2018-07-07T14:51:30.946Z,2.15
2018-07-07T14:53:58.869Z,5.30
2018-07-07T14:56:27.385Z,3.58
2018-07-07T14:58:55.307Z,3.60
2018-07-07T15:01:23.177Z,1.65
2018-07-07T15:03:51.058Z,2.55
2018-07-07T15:06:18.978Z,3.47
2018-07-07T15:08:46.905Z,2.25
2018-07-07T15:11:14.879Z,5.55
2018-07-07T15:13:42.860Z,1.55
2018-07-07T15:16:10.918Z,2.95
2018-07-07T15:18:38.832Z,3.20
2018-07-07T15:21:08.851Z,3.85
2018-07-07T15:23:36.779Z,1.72
2018-07-07T15:26:06.832Z,3.70
2018-07-07T15:28:34.750Z,1.90
2018-07-07T15:31:06.747Z,3.67
2018-07-07T15:34:23.619Z,4.87
2018-07-07T15:36:51.539Z,6.85
2018-07-07T15:39:19.295Z,2.35
2018-07-07T15:41:47.238Z,2.52
2018-07-07T15:44:15.663Z,3.60
2018-07-07T15:46:43.451Z,6.12
2018-07-07T15:49:11.238Z,1.35
2018-07-07T15:51:38.973Z,2.87
2018-07-07T15:54:06.799Z,4.58
2018-07-07T15:56:34.585Z,4.80
2018-07-07T15:59:04.336Z,3.47
2018-07-07T16:01:32.146Z,2.90
2018-07-07T16:04:00.005Z,0.70
2018-07-07T16:06:28.140Z,1.42
2018-07-07T16:08:56.175Z,3.20
2018-07-07T16:11:24.057Z,4.58
2018-07-07T16:13:52.068Z,2.80
2018-07-07T16:16:19.953Z,2.83
2018-07-07T16:18:47.990Z,2.50
2018-07-07T16:21:16.111Z,4.00
2018-07-07T16:23:44.282Z,3.15
2018-07-07T16:26:12.222Z,2.62
2018-07-07T16:28:40.255Z,3.62
2018-07-07T16:31:08.248Z,4.97
2018-07-07T16:33:36.309Z,4.62
2018-07-07T16:36:04.334Z,1.50
2018-07-07T16:38:32.473Z,2.35
2018-07-07T16:41:00.460Z,2.15
2018-07-07T16:43:28.746Z,7.83
2018-07-07T16:45:56.843Z,1.27
2018-07-07T16:48:24.897Z,3.35
2018-07-07T16:50:52.885Z,3.55
2018-07-07T16:53:20.958Z,2.47
2018-07-07T16:55:48.909Z,1.27
2018-07-07T16:58:17.014Z,2.22
2018-07-07T17:00:45.302Z,2.40
2018-07-07T17:03:13.837Z,1.80
2018-07-07T17:05:41.973Z,3.12
2018-07-07T17:08:09.951Z,1.87
2018-07-07T17:10:37.864Z,2.70
2018-07-07T17:13:05.714Z,2.40
2018-07-07T17:15:33.709Z,3.50
2018-07-07T17:18:02.772Z,2.45
2018-07-07T17:20:30.760Z,1.50
2018-07-07T17:22:59.808Z,2.98
2018-07-07T17:25:27.705Z,4.92
2018-07-07T17:27:55.486Z,3.17
2018-07-07T17:30:23.515Z,3.10
2018-07-07T17:32:51.341Z,3.85
2018-07-07T17:35:20.280Z,4.75
2018-07-07T17:37:48.152Z,4.65
2018-07-07T17:40:17.210Z,2.62
2018-07-07T17:42:45.056Z,4.75
2018-07-07T17:45:12.897Z,2.72
2018-07-07T17:47:40.851Z,2.90
2018-07-07T17:50:10.379Z,2.70
2018-07-07T17:52:39.015Z,3.98
2018-07-07T17:55:07.935Z,2.95
2018-07-07T17:57:37.665Z,3.15
2018-07-07T18:00:05.877Z,2.77
2018-07-07T18:02:33.658Z,2.25
2018-07-07T18:05:01.915Z,7.03
2018-07-07T18:07:29.676Z,4.67
2018-07-07T18:09:57.606Z,1.40
2018-07-07T18:12:25.618Z,3.02
2018-07-07T18:14:53.799Z,4.42
2018-07-07T18:17:21.668Z,3.92
2018-07-07T18:19:50.571Z,1.95
2018-07-07T18:22:18.517Z,3.52
2018-07-07T18:24:46.310Z,1.50
2018-07-07T18:27:14.213Z,3.12
2018-07-07T18:30:17.396Z,2.95
2018-07-07T18:32:45.197Z,3.47
2018-07-07T18:35:12.992Z,2.35
2018-07-07T18:37:40.964Z,4.95
2018-07-07T18:40:08.960Z,1.82
2018-07-07T18:42:36.847Z,2.35
2018-07-07T18:45:04.805Z,1.37
2018-07-07T18:47:32.612Z,2.30
2018-07-07T18:50:00.503Z,2.45
2018-07-07T18:52:28.320Z,2.77
2018-07-07T18:54:56.159Z,1.32
2018-07-07T18:57:24.947Z,2.65
2018-07-07T18:59:52.695Z,3.05
2018-07-07T19:02:20.535Z,1.72
2018-07-07T19:04:48.330Z,3.17
2018-07-07T19:07:25.146Z,4.55
2018-07-07T19:09:53.109Z,3.40
2018-07-07T19:12:20.927Z,3.87
2018-07-07T19:14:49.044Z,3.80
2018-07-07T19:17:17.022Z,3.72
2018-07-07T19:19:44.969Z,1.72
2018-07-07T19:22:18.576Z,2.58
2018-07-07T19:24:51.979Z,1.70
2018-07-07T19:27:19.942Z,3.45
2018-07-07T19:29:47.933Z,1.62
2018-07-07T19:32:21.404Z,1.12
2018-07-07T19:34:54.879Z,4.42
2018-07-07T19:37:22.914Z,4.97
2018-07-07T19:39:51.901Z,5.25
2018-07-07T19:42:19.844Z,3.10
2018-07-07T19:44:47.868Z,6.35
2018-07-07T19:47:15.777Z,2.17
2018-07-07T19:49:44.864Z,4.35
2018-07-07T19:52:12.780Z,5.87
2018-07-07T19:54:40.773Z,5.58
2018-07-07T19:57:08.676Z,2.55
2018-07-07T19:59:36.685Z,2.83
2018-07-07T20:02:04.626Z,4.70
2018-07-07T20:04:32.609Z,5.75
2018-07-07T20:07:00.508Z,1.60
2018-07-07T20:09:28.520Z,4.47
2018-07-07T20:11:56.446Z,3.87
2018-07-07T20:14:26.550Z,6.90
2018-07-07T20:17:00.412Z,3.37
2018-07-07T20:19:32.985Z,5.20
2018-07-07T20:22:02.185Z,3.77
2018-07-07T20:24:32.225Z,2.25
2018-07-07T20:27:05.716Z,5.08
2018-07-07T20:29:34.678Z,5.10
2018-07-07T20:32:10.262Z,4.08
2018-07-07T20:34:38.180Z,5.47
2018-07-07T20:37:06.250Z,4.80
2018-07-07T20:39:34.179Z,3.98
2018-07-07T20:42:04.239Z,10.45
2018-07-07T20:44:32.136Z,7.60
2018-07-07T20:47:00.147Z,5.58
2018-07-07T20:49:28.024Z,2.02
2018-07-07T20:51:55.931Z,4.37
2018-07-07T20:54:23.903Z,8.35
2018-07-07T20:56:51.914Z,7.12
2018-07-07T20:59:19.861Z,7.42
2018-07-07T21:01:47.925Z,6.37
2018-07-07T21:04:15.801Z,8.45
2018-07-07T21:06:43.835Z,4.70
2018-07-07T21:09:11.772Z,8.00
2018-07-07T21:11:39.759Z,14.93
2018-07-07T21:14:07.689Z,6.87
2018-07-07T21:16:35.706Z,4.00
2018-07-07T21:19:03.731Z,2.98
2018-07-07T21:21:31.579Z,2.58
2018-07-07T21:23:59.446Z,6.15
2018-07-07T21:26:48.511Z,2.75
2018-07-07T21:29:16.347Z,4.58
2018-07-07T21:31:44.030Z,4.80
2018-07-07T21:34:11.831Z,4.20
2018-07-07T21:36:39.571Z,2.20
2018-07-07T21:39:07.399Z,3.10
2018-07-07T21:41:35.196Z,4.35
2018-07-07T21:44:03.059Z,2.77
2018-07-07T21:46:51.581Z,4.67
2018-07-07T21:49:19.524Z,3.52
2018-07-07T21:51:47.434Z,3.80
2018-07-07T21:54:15.237Z,2.85
2018-07-07T21:56:43.141Z,3.17
2018-07-07T21:59:17.298Z,3.67
2018-07-07T22:01:56.526Z,5.25
2018-07-07T22:04:30.777Z,3.90
2018-07-07T22:07:04.654Z,4.05
2018-07-07T22:09:33.456Z,3.17
2018-07-07T22:12:01.330Z,3.75
2018-07-07T22:14:29.349Z,3.20
2018-07-07T22:16:57.464Z,2.60
2018-07-07T22:19:25.700Z,4.35
2018-07-07T22:22:00.659Z,5.22
2018-07-07T22:24:28.528Z,4.25
2018-07-07T22:27:04.235Z,4.83
2018-07-07T22:29:32.136Z,4.67
2018-07-07T22:32:02.253Z,3.20
2018-07-07T22:34:34.322Z,5.33
2018-07-07T22:37:02.186Z,2.70
2018-07-07T22:39:33.257Z,3.67
2018-07-07T22:42:02.117Z,4.70
2018-07-07T22:44:30.234Z,3.00
2018-07-07T22:46:58.173Z,4.30
2018-07-07T22:49:26.585Z,3.27
2018-07-07T22:51:54.497Z,3.37
2018-07-07T22:54:22.303Z,3.27
2018-07-07T22:56:50.334Z,2.12
2018-07-07T22:59:18.165Z,3.52
2018-07-07T23:01:45.963Z,3.50
2018-07-07T23:04:13.757Z,4.03
2018-07-07T23:10:26.015Z,1.77
2018-07-07T23:12:53.839Z,2.12
2018-07-07T23:15:21.678Z,3.85
2018-07-07T23:17:49.490Z,5.15
2018-07-07T23:20:17.326Z,2.37
2018-07-07T23:22:53.491Z,4.35
2018-07-07T23:25:21.349Z,1.85
2018-07-07T23:27:49.969Z,3.33
2018-07-07T23:30:18.157Z,3.50
2018-07-07T23:32:46.106Z,4.00
2018-07-07T23:35:14.093Z,1.72
2018-07-07T23:37:42.294Z,2.92
2018-07-07T23:40:10.572Z,1.87
2018-07-07T23:42:39.184Z,2.30
2018-07-07T23:45:07.606Z,4.12
2018-07-07T23:47:35.424Z,2.10
2018-07-07T23:50:03.518Z,6.05
2018-07-07T23:52:31.430Z,1.42
2018-07-07T23:54:59.373Z,1.95
2018-07-07T23:57:27.319Z,1.07
2018-07-07T23:59:55.739Z,1.40
